sensor_id;sensor_type;location;lat;lon;timestamp;pressure;altitude;pressure_sealevel;temperature;humidity
39793;BME280;26080;42.264;24.536;2023-03-23T00:01:23;99315.81;;;8.17;100.00
39793;BME280;26080;42.264;24.536;2023-03-23T00:03:53;99314.69;;;8.00;100.00
39793;BME280;26080;42.264;24.536;2023-03-23T00:06:20;99303.66;;;7.92;100.00
39793;BME280;26080;42.264;24.536;2023-03-23T00:08:51;99309.56;;;7.97;100.00
39793;BME280;26080;42.264;24.536;2023-03-23T00:11:24;99293.28;;;7.91;100.00
39793;BME280;26080;42.264;24.536;2023-03-23T00:13:52;99299.28;;;7.93;100.00
39793;BME280;26080;42.264;24.536;2023-03-23T00:16:22;99309.78;;;7.91;100.00
39793;BME280;26080;42.264;24.536;2023-03-23T00:18:55;99301.47;;;7.82;100.00
39793;BME280;26080;42.264;24.536;2023-03-23T00:21:31;99305.81;;;7.81;100.00
39793;BME280;26080;42.264;24.536;2023-03-23T00:24:20;99304.50;;;7.69;100.00
39793;BME280;26080;42.264;24.536;2023-03-23T00:26:47;99262.47;;;7.54;100.00
39793;BME280;26080;42.264;24.536;2023-03-23T00:29:18;99310.28;;;7.78;100.00
39793;BME280;26080;42.264;24.536;2023-03-23T00:31:46;99302.69;;;7.71;100.00
39793;BME280;26080;42.264;24.536;2023-03-23T00:34:13;99305.66;;;7.61;100.00
39793;BME280;26080;42.264;24.536;2023-03-23T00:36:43;99300.56;;;7.58;100.00
39793;BME280;26080;42.264;24.536;2023-03-23T00:39:10;99306.88;;;7.51;100.00
39793;BME280;26080;42.264;24.536;2023-03-23T00:41:35;99297.66;;;7.42;100.00
39793;BME280;26080;42.264;24.536;2023-03-23T00:44:02;99304.50;;;7.45;100.00
39793;BME280;26080;42.264;24.536;2023-03-23T00:46:28;99304.81;;;7.35;100.00
39793;BME280;26080;42.264;24.536;2023-03-23T00:48:55;99263.22;;;7.07;100.00
39793;BME280;26080;42.264;24.536;2023-03-23T00:51:22;99298.19;;;7.25;100.00
39793;BME280;26080;42.264;24.536;2023-03-23T00:53:48;99299.22;;;7.21;100.00
39793;BME280;26080;42.264;24.536;2023-03-23T00:56:14;99294.13;;;7.18;100.00
39793;BME280;26080;42.264;24.536;2023-03-23T00:58:39;99312.75;;;7.06;100.00
39793;BME280;26080;42.264;24.536;2023-03-23T01:01:06;99308.50;;;7.03;100.00
39793;BME280;26080;42.264;24.536;2023-03-23T01:03:32;99292.22;;;6.97;100.00
39793;BME280;26080;42.264;24.536;2023-03-23T01:06:07;99305.66;;;6.83;100.00
39793;BME280;26080;42.264;24.536;2023-03-23T01:08:38;99306.53;;;6.83;100.00
39793;BME280;26080;42.264;24.536;2023-03-23T01:11:14;99300.53;;;6.81;100.00
39793;BME280;26080;42.264;24.536;2023-03-23T01:13:43;99301.34;;;6.56;100.00
39793;BME280;26080;42.264;24.536;2023-03-23T01:16:10;99299.22;;;6.40;100.00
39793;BME280;26080;42.264;24.536;2023-03-23T01:18:36;99293.47;;;6.29;100.00
39793;BME280;26080;42.264;24.536;2023-03-23T01:21:13;99298.28;;;6.13;100.00
39793;BME280;26080;42.264;24.536;2023-03-23T01:23:39;99297.78;;;6.01;100.00
39793;BME280;26080;42.264;24.536;2023-03-23T01:26:07;99303.38;;;6.16;100.00
39793;BME280;26080;42.264;24.536;2023-03-23T01:28:34;99292.72;;;6.26;100.00
39793;BME280;26080;42.264;24.536;2023-03-23T01:31:04;99261.31;;;6.04;100.00
39793;BME280;26080;42.264;24.536;2023-03-23T01:33:30;99285.53;;;6.06;100.00
39793;BME280;26080;42.264;24.536;2023-03-23T01:35:56;99291.88;;;5.96;100.00
39793;BME280;26080;42.264;24.536;2023-03-23T01:38:22;99283.06;;;5.69;100.00
39793;BME280;26080;42.264;24.536;2023-03-23T01:40:47;99280.91;;;5.53;100.00
39793;BME280;26080;42.264;24.536;2023-03-23T01:43:14;99285.47;;;5.44;100.00
39793;BME280;26080;42.264;24.536;2023-03-23T01:45:41;99285.47;;;5.44;100.00
39793;BME280;26080;42.264;24.536;2023-03-23T01:48:33;99285.72;;;5.67;100.00
39793;BME280;26080;42.264;24.536;2023-03-23T01:51:09;99292.72;;;5.65;100.00
39793;BME280;26080;42.264;24.536;2023-03-23T01:53:51;99301.25;;;5.69;100.00
39793;BME280;26080;42.264;24.536;2023-03-23T01:56:22;99293.00;;;5.54;100.00
39793;BME280;26080;42.264;24.536;2023-03-23T01:58:53;99289.59;;;5.52;100.00
39793;BME280;26080;42.264;24.536;2023-03-23T02:01:19;99294.13;;;5.44;100.00
39793;BME280;26080;42.264;24.536;2023-03-23T02:03:47;99279.47;;;5.42;100.00
39793;BME280;26080;42.264;24.536;2023-03-23T02:06:14;99306.69;;;5.59;100.00
39793;BME280;26080;42.264;24.536;2023-03-23T02:08:41;99303.72;;;5.42;100.00
39793;BME280;26080;42.264;24.536;2023-03-23T02:11:17;99303.25;;;5.26;100.00
39793;BME280;26080;42.264;24.536;2023-03-23T02:13:43;99307.13;;;5.10;100.00
39793;BME280;26080;42.264;24.536;2023-03-23T02:30:27;99306.19;;;4.41;100.00
39793;BME280;26080;42.264;24.536;2023-03-23T02:38:28;99313.72;;;4.12;100.00
39793;BME280;26080;42.264;24.536;2023-03-23T02:40:56;99289.22;;;3.86;100.00
39793;BME280;26080;42.264;24.536;2023-03-23T02:43:27;99283.25;;;3.81;100.00
39793;BME280;26080;42.264;24.536;2023-03-23T02:45:54;99286.97;;;3.68;100.00
39793;BME280;26080;42.264;24.536;2023-03-23T02:48:22;99322.19;;;3.77;100.00
39793;BME280;26080;42.264;24.536;2023-03-23T02:50:52;99307.69;;;3.68;100.00
39793;BME280;26080;42.264;24.536;2023-03-23T02:53:21;99319.72;;;3.72;100.00
39793;BME280;26080;42.264;24.536;2023-03-23T02:55:48;99318.88;;;3.72;100.00
39793;BME280;26080;42.264;24.536;2023-03-23T02:58:14;99322.16;;;3.78;100.00
39793;BME280;26080;42.264;24.536;2023-03-23T03:00:40;99280.16;;;3.64;100.00
39793;BME280;26080;42.264;24.536;2023-03-23T03:03:12;99324.38;;;3.98;100.00
39793;BME280;26080;42.264;24.536;2023-03-23T03:11:13;99291.34;;;3.65;100.00
39793;BME280;26080;42.264;24.536;2023-03-23T03:16:33;99328.91;;;3.87;100.00
39793;BME280;26080;42.264;24.536;2023-03-23T03:19:12;99308.94;;;3.92;100.00
39793;BME280;26080;42.264;24.536;2023-03-23T03:21:45;99341.19;;;4.21;100.00
39793;BME280;26080;42.264;24.536;2023-03-23T03:24:15;99341.97;;;4.26;100.00
39793;BME280;26080;42.264;24.536;2023-03-23T03:26:46;99342.81;;;4.26;100.00
39793;BME280;26080;42.264;24.536;2023-03-23T03:29:18;99342.84;;;4.23;100.00
39793;BME280;26080;42.264;24.536;2023-03-23T03:31:47;99347.47;;;4.09;100.00
39793;BME280;26080;42.264;24.536;2023-03-23T03:34:14;99331.41;;;3.92;100.00
39793;BME280;26080;42.264;24.536;2023-03-23T03:36:44;99337.69;;;3.80;100.00
39793;BME280;26080;42.264;24.536;2023-03-23T03:39:12;99339.63;;;3.69;100.00
39793;BME280;26080;42.264;24.536;2023-03-23T03:41:40;99305.41;;;3.51;100.00
39793;BME280;26080;42.264;24.536;2023-03-23T03:44:06;99317.31;;;3.62;100.00
39793;BME280;26080;42.264;24.536;2023-03-23T03:46:33;99354.31;;;3.68;100.00
39793;BME280;26080;42.264;24.536;2023-03-23T03:48:59;99338.03;;;3.62;100.00
39793;BME280;26080;42.264;24.536;2023-03-23T03:51:26;99338.13;;;3.57;100.00
39793;BME280;26080;42.264;24.536;2023-03-23T03:53:53;99330.31;;;3.60;100.00
39793;BME280;26080;42.264;24.536;2023-03-23T03:56:19;99328.75;;;3.50;100.00
39793;BME280;26080;42.264;24.536;2023-03-23T03:58:45;99330.69;;;3.39;100.00
39793;BME280;26080;42.264;24.536;2023-03-23T04:01:14;99340.38;;;3.27;100.00
39793;BME280;26080;42.264;24.536;2023-03-23T04:03:41;99335.38;;;3.18;100.00
39793;BME280;26080;42.264;24.536;2023-03-23T04:06:08;99304.84;;;2.85;100.00
39793;BME280;26080;42.264;24.536;2023-03-23T04:08:35;99326.44;;;2.84;100.00
39793;BME280;26080;42.264;24.536;2023-03-23T04:11:03;99336.81;;;2.81;100.00
39793;BME280;26080;42.264;24.536;2023-03-23T04:13:29;99321.66;;;2.56;100.00
39793;BME280;26080;42.264;24.536;2023-03-23T04:15:55;99331.97;;;2.61;100.00
39793;BME280;26080;42.264;24.536;2023-03-23T04:18:21;99310.59;;;2.48;100.00
39793;BME280;26080;42.264;24.536;2023-03-23T04:20:48;99311.47;;;2.49;100.00
39793;BME280;26080;42.264;24.536;2023-03-23T04:23:15;99346.63;;;2.60;100.00
39793;BME280;26080;42.264;24.536;2023-03-23T04:25:46;99357.75;;;2.65;100.00
39793;BME280;26080;42.264;24.536;2023-03-23T04:28:13;99361.06;;;2.74;100.00
39793;BME280;26080;42.264;24.536;2023-03-23T04:30:39;99356.78;;;2.74;100.00
39793;BME280;26080;42.264;24.536;2023-03-23T04:33:08;99350.72;;;2.75;100.00
39793;BME280;26080;42.264;24.536;2023-03-23T04:35:34;99350.72;;;2.74;100.00
39793;BME280;26080;42.264;24.536;2023-03-23T04:38:00;99348.16;;;2.72;100.00
39793;BME280;26080;42.264;24.536;2023-03-23T04:40:25;99300.28;;;2.48;100.00
39793;BME280;26080;42.264;24.536;2023-03-23T04:42:51;99346.31;;;2.80;100.00
39793;BME280;26080;42.264;24.536;2023-03-23T04:45:20;99352.28;;;2.84;100.00
39793;BME280;26080;42.264;24.536;2023-03-23T04:47:51;99352.38;;;2.79;100.00
39793;BME280;26080;42.264;24.536;2023-03-23T04:50:23;99350.50;;;2.89;100.00
39793;BME280;26080;42.264;24.536;2023-03-23T04:52:50;99352.34;;;2.81;100.00
39793;BME280;26080;42.264;24.536;2023-03-23T04:55:17;99313.00;;;2.60;100.00
39793;BME280;26080;42.264;24.536;2023-03-23T04:57:43;99353.91;;;2.91;100.00
39793;BME280;26080;42.264;24.536;2023-03-23T05:00:10;99360.53;;;3.09;100.00
39793;BME280;26080;42.264;24.536;2023-03-23T05:02:40;99351.81;;;3.14;100.00
39793;BME280;26080;42.264;24.536;2023-03-23T05:05:07;99355.66;;;3.41;100.00
39793;BME280;26080;42.264;24.536;2023-03-23T05:07:33;99332.59;;;3.27;100.00
39793;BME280;26080;42.264;24.536;2023-03-23T05:09:58;99359.22;;;3.36;100.00
39793;BME280;26080;42.264;24.536;2023-03-23T05:12:24;99365.00;;;3.50;100.00
39793;BME280;26080;42.264;24.536;2023-03-23T05:14:50;99334.69;;;3.55;100.00
39793;BME280;26080;42.264;24.536;2023-03-23T05:17:15;99368.97;;;3.69;100.00
39793;BME280;26080;42.264;24.536;2023-03-23T05:19:45;99377.97;;;3.95;100.00
39793;BME280;26080;42.264;24.536;2023-03-23T05:22:13;99378.53;;;4.10;100.00
39793;BME280;26080;42.264;24.536;2023-03-23T05:24:39;99380.78;;;4.29;100.00
39793;BME280;26080;42.264;24.536;2023-03-23T05:27:05;99385.59;;;4.45;100.00
39793;BME280;26080;42.264;24.536;2023-03-23T05:29:33;99387.91;;;4.59;100.00
39793;BME280;26080;42.264;24.536;2023-03-23T05:32:04;99388.50;;;4.72;100.00
39793;BME280;26080;42.264;24.536;2023-03-23T05:34:31;99385.63;;;4.84;100.00
39793;BME280;26080;42.264;24.536;2023-03-23T05:37:01;99391.38;;;4.97;100.00
39793;BME280;26080;42.264;24.536;2023-03-23T05:39:28;99383.91;;;4.83;100.00
39793;BME280;26080;42.264;24.536;2023-03-23T05:41:54;99370.94;;;4.83;100.00
39793;BME280;26080;42.264;24.536;2023-03-23T05:44:20;99387.63;;;5.10;100.00
39793;BME280;26080;42.264;24.536;2023-03-23T05:46:46;99387.50;;;5.15;100.00
39793;BME280;26080;42.264;24.536;2023-03-23T05:49:15;99395.13;;;5.22;100.00
39793;BME280;26080;42.264;24.536;2023-03-23T05:51:42;99392.94;;;5.40;100.00
39793;BME280;26080;42.264;24.536;2023-03-23T05:54:07;99380.25;;;5.63;100.00
39793;BME280;26080;42.264;24.536;2023-03-23T05:56:33;99401.44;;;5.80;100.00
39793;BME280;26080;42.264;24.536;2023-03-23T05:58:59;99400.63;;;6.11;100.00
39793;BME280;26080;42.264;24.536;2023-03-23T06:01:25;99401.69;;;6.35;100.00
39793;BME280;26080;42.264;24.536;2023-03-23T06:03:51;99404.56;;;6.55;100.00
39793;BME280;26080;42.264;24.536;2023-03-23T06:06:21;99412.06;;;6.66;100.00
39793;BME280;26080;42.264;24.536;2023-03-23T06:08:47;99405.53;;;6.80;100.00
39793;BME280;26080;42.264;24.536;2023-03-23T06:11:15;99411.44;;;6.87;100.00
39793;BME280;26080;42.264;24.536;2023-03-23T06:13:41;99417.19;;;6.97;100.00
39793;BME280;26080;42.264;24.536;2023-03-23T06:16:07;99417.78;;;7.06;100.00
39793;BME280;26080;42.264;24.536;2023-03-23T06:18:34;99392.69;;;7.04;100.00
39793;BME280;26080;42.264;24.536;2023-03-23T06:21:02;99420.00;;;7.19;100.00
39793;BME280;26080;42.264;24.536;2023-03-23T06:23:28;99409.03;;;7.35;100.00
39793;BME280;26080;42.264;24.536;2023-03-23T06:25:58;99430.78;;;7.61;100.00
39793;BME280;26080;42.264;24.536;2023-03-23T06:28:24;99435.59;;;7.73;100.00
39793;BME280;26080;42.264;24.536;2023-03-23T06:30:50;99421.53;;;7.77;100.00
39793;BME280;26080;42.264;24.536;2023-03-23T06:33:19;99427.47;;;7.82;100.00
39793;BME280;26080;42.264;24.536;2023-03-23T06:35:44;99408.84;;;7.68;100.00
39793;BME280;26080;42.264;24.536;2023-03-23T06:38:13;99418.81;;;7.80;100.00
39793;BME280;26080;42.264;24.536;2023-03-23T06:40:38;99422.25;;;7.82;100.00
39793;BME280;26080;42.264;24.536;2023-03-23T06:43:04;99423.66;;;8.16;100.00
39793;BME280;26080;42.264;24.536;2023-03-23T06:45:30;99425.91;;;8.01;100.00
39793;BME280;26080;42.264;24.536;2023-03-23T06:47:56;99421.53;;;8.02;100.00
39793;BME280;26080;42.264;24.536;2023-03-23T06:50:22;99416.97;;;8.09;100.00
39793;BME280;26080;42.264;24.536;2023-03-23T06:52:49;99435.31;;;8.30;100.00
39793;BME280;26080;42.264;24.536;2023-03-23T06:55:15;99446.38;;;8.39;100.00
39793;BME280;26080;42.264;24.536;2023-03-23T06:57:43;99447.56;;;8.28;100.00
39793;BME280;26080;42.264;24.536;2023-03-23T07:00:10;99450.91;;;8.32;100.00
39793;BME280;26080;42.264;24.536;2023-03-23T07:02:42;99454.16;;;8.40;100.00
39793;BME280;26080;42.264;24.536;2023-03-23T07:05:09;99425.19;;;8.21;100.00
39793;BME280;26080;42.264;24.536;2023-03-23T07:07:36;99451.53;;;8.40;100.00
39793;BME280;26080;42.264;24.536;2023-03-23T07:10:03;99457.09;;;8.29;100.00
39793;BME280;26080;42.264;24.536;2023-03-23T07:12:29;99424.16;;;8.02;100.00
39793;BME280;26080;42.264;24.536;2023-03-23T07:14:55;99425.47;;;7.89;100.00
39793;BME280;26080;42.264;24.536;2023-03-23T07:17:21;99457.31;;;7.98;100.00
39793;BME280;26080;42.264;24.536;2023-03-23T07:19:46;99445.88;;;8.02;100.00
39793;BME280;26080;42.264;24.536;2023-03-23T07:22:12;99449.22;;;8.06;100.00
39793;BME280;26080;42.264;24.536;2023-03-23T07:24:37;99448.72;;;8.20;100.00
39793;BME280;26080;42.264;24.536;2023-03-23T07:27:03;99439.56;;;8.33;100.00
39793;BME280;26080;42.264;24.536;2023-03-23T07:29:29;99452.84;;;8.52;100.00
39793;BME280;26080;42.264;24.536;2023-03-23T07:31:55;99452.78;;;8.77;100.00
39793;BME280;26080;42.264;24.536;2023-03-23T07:34:21;99450.75;;;8.85;100.00
39793;BME280;26080;42.264;24.536;2023-03-23T07:36:47;99439.09;;;8.94;100.00
39793;BME280;26080;42.264;24.536;2023-03-23T07:39:13;99445.56;;;9.07;100.00
39793;BME280;26080;42.264;24.536;2023-03-23T07:41:39;99454.44;;;9.25;100.00
39793;BME280;26080;42.264;24.536;2023-03-23T07:44:05;99450.91;;;9.26;100.00
39793;BME280;26080;42.264;24.536;2023-03-23T07:46:31;99446.31;;;9.32;100.00
39793;BME280;26080;42.264;24.536;2023-03-23T07:48:57;99461.38;;;9.47;100.00
39793;BME280;26080;42.264;24.536;2023-03-23T07:51:23;99452.28;;;9.56;100.00
39793;BME280;26080;42.264;24.536;2023-03-23T07:53:50;99454.16;;;9.74;100.00
39793;BME280;26080;42.264;24.536;2023-03-23T07:56:16;99446.97;;;9.79;100.00
39793;BME280;26080;42.264;24.536;2023-03-23T07:58:47;99453.38;;;9.93;100.00
39793;BME280;26080;42.264;24.536;2023-03-23T08:01:13;99432.06;;;10.02;100.00
39793;BME280;26080;42.264;24.536;2023-03-23T08:03:39;99452.41;;;10.36;100.00
39793;BME280;26080;42.264;24.536;2023-03-23T08:06:05;99420.78;;;10.20;100.00
39793;BME280;26080;42.264;24.536;2023-03-23T08:08:31;99465.41;;;10.58;100.00
39793;BME280;26080;42.264;24.536;2023-03-23T08:10:57;99457.81;;;10.52;100.00
39793;BME280;26080;42.264;24.536;2023-03-23T08:13:22;99461.66;;;10.63;100.00
39793;BME280;26080;42.264;24.536;2023-03-23T08:15:48;99451.34;;;10.79;100.00
39793;BME280;26080;42.264;24.536;2023-03-23T08:18:15;99443.19;;;10.66;100.00
39793;BME280;26080;42.264;24.536;2023-03-23T08:20:41;99462.88;;;10.94;100.00
39793;BME280;26080;42.264;24.536;2023-03-23T08:23:07;99467.84;;;11.19;100.00
39793;BME280;26080;42.264;24.536;2023-03-23T08:25:32;99435.53;;;11.18;100.00
39793;BME280;26080;42.264;24.536;2023-03-23T08:27:59;99451.44;;;11.51;100.00
39793;BME280;26080;42.264;24.536;2023-03-23T08:30:27;99462.53;;;11.56;100.00
39793;BME280;26080;42.264;24.536;2023-03-23T08:32:56;99440.28;;;11.46;100.00
39793;BME280;26080;42.264;24.536;2023-03-23T08:35:21;99412.97;;;11.50;100.00
39793;BME280;26080;42.264;24.536;2023-03-23T08:37:47;99456.41;;;11.92;100.00
39793;BME280;26080;42.264;24.536;2023-03-23T08:40:17;99456.31;;;12.28;100.00
39793;BME280;26080;42.264;24.536;2023-03-23T08:42:45;99454.88;;;12.89;100.00
39793;BME280;26080;42.264;24.536;2023-03-23T08:45:12;99454.91;;;13.36;100.00
39793;BME280;26080;42.264;24.536;2023-03-23T08:47:40;99437.25;;;13.68;100.00
39793;BME280;26080;42.264;24.536;2023-03-23T08:50:07;99434.16;;;13.91;100.00
39793;BME280;26080;42.264;24.536;2023-03-23T08:52:33;99431.25;;;14.10;100.00
39793;BME280;26080;42.264;24.536;2023-03-23T08:54:59;99449.69;;;14.40;100.00
39793;BME280;26080;42.264;24.536;2023-03-23T08:57:26;99453.47;;;14.65;100.00
39793;BME280;26080;42.264;24.536;2023-03-23T08:59:52;99430.41;;;14.54;100.00
39793;BME280;26080;42.264;24.536;2023-03-23T09:02:20;99453.94;;;14.86;100.00
39793;BME280;26080;42.264;24.536;2023-03-23T09:04:46;99458.91;;;14.90;100.00
39793;BME280;26080;42.264;24.536;2023-03-23T09:07:12;99459.38;;;14.97;100.00
39793;BME280;26080;42.264;24.536;2023-03-23T09:09:40;99453.91;;;15.00;100.00
39793;BME280;26080;42.264;24.536;2023-03-23T09:12:07;99457.63;;;14.83;100.00
39793;BME280;26080;42.264;24.536;2023-03-23T09:14:32;99462.78;;;14.99;100.00
39793;BME280;26080;42.264;24.536;2023-03-23T09:16:58;99449.88;;;14.94;100.00
39793;BME280;26080;42.264;24.536;2023-03-23T09:19:23;99448.00;;;14.96;100.00
39793;BME280;26080;42.264;24.536;2023-03-23T09:21:49;99425.41;;;14.78;100.00
39793;BME280;26080;42.264;24.536;2023-03-23T09:24:15;99451.19;;;14.87;100.00
39793;BME280;26080;42.264;24.536;2023-03-23T09:26:41;99447.22;;;14.80;100.00
39793;BME280;26080;42.264;24.536;2023-03-23T09:29:06;99445.34;;;14.96;100.00
39793;BME280;26080;42.264;24.536;2023-03-23T09:31:32;99440.06;;;15.10;100.00
39793;BME280;26080;42.264;24.536;2023-03-23T09:33:58;99402.00;;;15.00;100.00
39793;BME280;26080;42.264;24.536;2023-03-23T09:36:25;99443.44;;;15.13;100.00
39793;BME280;26080;42.264;24.536;2023-03-23T09:38:57;99428.00;;;14.92;100.00
39793;BME280;26080;42.264;24.536;2023-03-23T09:41:44;99427.25;;;14.90;100.00
39793;BME280;26080;42.264;24.536;2023-03-23T09:47:12;99429.31;;;15.14;100.00
39793;BME280;26080;42.264;24.536;2023-03-23T09:52:20;99407.56;;;15.37;100.00
39793;BME280;26080;42.264;24.536;2023-03-23T09:54:52;99424.44;;;15.61;94.17
39793;BME280;26080;42.264;24.536;2023-03-23T09:57:49;99423.69;;;15.99;99.38
39793;BME280;26080;42.264;24.536;2023-03-23T10:00:18;99417.03;;;16.44;96.37
39793;BME280;26080;42.264;24.536;2023-03-23T10:03:16;99421.91;;;16.63;90.51
39793;BME280;26080;42.264;24.536;2023-03-23T10:05:48;99418.44;;;16.75;91.88
39793;BME280;26080;42.264;24.536;2023-03-23T10:08:20;99408.47;;;16.79;94.82
39793;BME280;26080;42.264;24.536;2023-03-23T10:11:08;99417.47;;;17.13;93.22
39793;BME280;26080;42.264;24.536;2023-03-23T10:16:19;99392.63;;;17.27;78.62
39793;BME280;26080;42.264;24.536;2023-03-23T10:21:30;99372.16;;;17.17;80.87
39793;BME280;26080;42.264;24.536;2023-03-23T10:24:02;99394.56;;;17.48;82.72
39793;BME280;26080;42.264;24.536;2023-03-23T10:27:04;99394.22;;;17.53;80.91
39793;BME280;26080;42.264;24.536;2023-03-23T10:29:35;99389.09;;;17.63;80.34
39793;BME280;26080;42.264;24.536;2023-03-23T10:32:10;99385.53;;;17.51;79.41
39793;BME280;26080;42.264;24.536;2023-03-23T10:37:25;99382.28;;;17.00;79.15
39793;BME280;26080;42.264;24.536;2023-03-23T10:39:57;99379.84;;;16.97;79.18
39793;BME280;26080;42.264;24.536;2023-03-23T10:42:32;99383.91;;;16.90;81.46
39793;BME280;26080;42.264;24.536;2023-03-23T10:45:19;99371.72;;;17.00;85.97
39793;BME280;26080;42.264;24.536;2023-03-23T10:47:52;99354.81;;;16.90;83.62
39793;BME280;26080;42.264;24.536;2023-03-23T10:50:24;99370.53;;;17.04;84.41
39793;BME280;26080;42.264;24.536;2023-03-23T10:52:51;99373.91;;;17.06;82.23
39793;BME280;26080;42.264;24.536;2023-03-23T10:55:20;99365.56;;;17.23;80.88
39793;BME280;26080;42.264;24.536;2023-03-23T10:58:02;99368.75;;;17.28;81.79
39793;BME280;26080;42.264;24.536;2023-03-23T11:00:29;99368.09;;;17.25;76.69
39793;BME280;26080;42.264;24.536;2023-03-23T11:03:39;99361.41;;;17.08;77.94
39793;BME280;26080;42.264;24.536;2023-03-23T11:06:08;99365.66;;;16.98;82.75
39793;BME280;26080;42.264;24.536;2023-03-23T11:08:38;99357.72;;;16.98;78.30
39793;BME280;26080;42.264;24.536;2023-03-23T11:11:15;99364.69;;;16.99;79.62
39793;BME280;26080;42.264;24.536;2023-03-23T11:13:45;99362.28;;;16.96;78.34
39793;BME280;26080;42.264;24.536;2023-03-23T11:16:23;99355.22;;;17.20;79.02
39793;BME280;26080;42.264;24.536;2023-03-23T11:18:49;99356.47;;;17.27;79.88
39793;BME280;26080;42.264;24.536;2023-03-23T11:21:14;99351.72;;;17.43;76.66
39793;BME280;26080;42.264;24.536;2023-03-23T11:23:43;99336.44;;;17.47;79.11
39793;BME280;26080;42.264;24.536;2023-03-23T11:26:15;99309.78;;;17.37;75.09
39793;BME280;26080;42.264;24.536;2023-03-23T11:28:56;99350.63;;;17.70;76.15
39793;BME280;26080;42.264;24.536;2023-03-23T11:31:28;99346.63;;;17.40;70.38
39793;BME280;26080;42.264;24.536;2023-03-23T11:36:20;99342.72;;;17.57;72.60
39793;BME280;26080;42.264;24.536;2023-03-23T11:38:53;99319.66;;;17.35;71.74
39793;BME280;26080;42.264;24.536;2023-03-23T11:41:22;99312.41;;;17.26;74.45
39793;BME280;26080;42.264;24.536;2023-03-23T11:43:51;99332.66;;;17.38;74.49
39793;BME280;26080;42.264;24.536;2023-03-23T11:48:57;99326.69;;;17.71;73.48
39793;BME280;26080;42.264;24.536;2023-03-23T11:51:33;99324.25;;;17.68;78.46
39793;BME280;26080;42.264;24.536;2023-03-23T11:54:38;99326.56;;;17.73;72.09
39793;BME280;26080;42.264;24.536;2023-03-23T11:57:10;99318.06;;;17.68;75.68
39793;BME280;26080;42.264;24.536;2023-03-23T11:59:37;99320.00;;;17.66;71.96
39793;BME280;26080;42.264;24.536;2023-03-23T12:02:39;99316.69;;;17.51;72.09
39793;BME280;26080;42.264;24.536;2023-03-23T12:18:40;99317.31;;;17.20;75.29
39793;BME280;26080;42.264;24.536;2023-03-23T12:26:47;99305.59;;;17.11;78.46
39793;BME280;26080;42.264;24.536;2023-03-23T12:47:37;99292.84;;;17.05;76.44
39793;BME280;26080;42.264;24.536;2023-03-23T12:50:13;99293.50;;;16.96;74.90
39793;BME280;26080;42.264;24.536;2023-03-23T12:55:35;99289.56;;;16.77;81.13
39793;BME280;26080;42.264;24.536;2023-03-23T12:58:07;99292.22;;;16.77;76.38
39793;BME280;26080;42.264;24.536;2023-03-23T13:00:48;99289.13;;;16.83;76.89
39793;BME280;26080;42.264;24.536;2023-03-23T13:04:05;99296.22;;;17.07;76.69
39793;BME280;26080;42.264;24.536;2023-03-23T13:06:29;99274.50;;;16.91;72.86
39793;BME280;26080;42.264;24.536;2023-03-23T13:11:50;99288.13;;;16.73;73.42
39793;BME280;26080;42.264;24.536;2023-03-23T13:22:45;99293.06;;;17.02;77.75
39793;BME280;26080;42.264;24.536;2023-03-23T13:25:41;99294.75;;;17.03;77.08
39793;BME280;26080;42.264;24.536;2023-03-23T13:28:23;99280.03;;;16.87;81.04
39793;BME280;26080;42.264;24.536;2023-03-23T13:33:31;99297.06;;;17.07;79.98
39793;BME280;26080;42.264;24.536;2023-03-23T13:36:08;99291.09;;;17.16;77.82
39793;BME280;26080;42.264;24.536;2023-03-23T13:38:34;99280.28;;;17.20;78.99
39793;BME280;26080;42.264;24.536;2023-03-23T13:41:21;99284.75;;;17.30;82.98
39793;BME280;26080;42.264;24.536;2023-03-23T13:43:47;99280.44;;;17.29;80.89
39793;BME280;26080;42.264;24.536;2023-03-23T13:46:25;99283.75;;;17.20;79.94
39793;BME280;26080;42.264;24.536;2023-03-23T13:51:46;99299.50;;;16.86;81.65
39793;BME280;26080;42.264;24.536;2023-03-23T13:59:57;99300.88;;;16.30;82.32
39793;BME280;26080;42.264;24.536;2023-03-23T14:05:19;99301.72;;;16.30;85.47
39793;BME280;26080;42.264;24.536;2023-03-23T14:08:02;99289.78;;;16.25;84.08
39793;BME280;26080;42.264;24.536;2023-03-23T14:10:44;99302.59;;;16.18;86.28
39793;BME280;26080;42.264;24.536;2023-03-23T14:13:29;99297.72;;;16.12;87.13
39793;BME280;26080;42.264;24.536;2023-03-23T14:16:22;99305.25;;;16.06;87.57
39793;BME280;26080;42.264;24.536;2023-03-23T14:21:48;99296.38;;;15.81;91.33
39793;BME280;26080;42.264;24.536;2023-03-23T14:26:48;99301.56;;;15.83;91.00
39793;BME280;26080;42.264;24.536;2023-03-23T14:29:18;99297.63;;;15.76;89.77
39793;BME280;26080;42.264;24.536;2023-03-23T14:31:43;99296.25;;;15.70;91.55
39793;BME280;26080;42.264;24.536;2023-03-23T14:34:14;99295.94;;;15.75;91.93
39793;BME280;26080;42.264;24.536;2023-03-23T14:36:41;99297.56;;;15.77;90.52
39793;BME280;26080;42.264;24.536;2023-03-23T14:41:42;99302.19;;;15.74;88.74
39793;BME280;26080;42.264;24.536;2023-03-23T14:44:17;99295.63;;;15.66;89.42
39793;BME280;26080;42.264;24.536;2023-03-23T14:46:45;99298.38;;;15.65;90.71
39793;BME280;26080;42.264;24.536;2023-03-23T14:49:15;99292.09;;;15.53;89.85
39793;BME280;26080;42.264;24.536;2023-03-23T14:51:53;99296.44;;;15.54;89.88
39793;BME280;26080;42.264;24.536;2023-03-23T14:54:25;99298.34;;;15.52;88.23
39793;BME280;26080;42.264;24.536;2023-03-23T14:56:51;99292.50;;;15.47;88.73
39793;BME280;26080;42.264;24.536;2023-03-23T14:59:16;99286.91;;;15.39;90.51
39793;BME280;26080;42.264;24.536;2023-03-23T15:01:43;99284.16;;;15.28;89.97